Terminal Aerodrome Forecast
Issued by NWS

Home | Current Version | Previous Version | Graphics & Text | Print | Product List | Glossary On
Versions: 1 2 3 4 5 6 7 8 9 10 11 12 13 14 15 16 17 18
000
FTUS43 KBIS 241100
TAFDIK
TAF
KDIK 241134Z 2412/2512 19012KT P6SM BKN070 OVC090
     FM241800 24012KT P6SM BKN035 OVC070
     FM250000 26008KT P6SM BKN020 OVC040
     FM250600 32012KT P6SM OVC012=

USA.gov is the U.S. government's official web portal to all federal, state and local government web resources and services.